createdAt,value
2018-03-07T00:02:57.000Z,16.8
2018-03-07T00:12:57.000Z,16.7
2018-03-07T00:22:57.000Z,16.8
2018-03-07T00:32:57.000Z,16.6
2018-03-07T00:42:57.000Z,16.8
2018-03-07T00:52:57.000Z,16.5
2018-03-07T01:02:57.000Z,16.8
2018-03-07T01:12:57.000Z,16.8
2018-03-07T01:22:57.000Z,16.8
2018-03-07T01:32:57.000Z,16.5
2018-03-07T01:42:57.000Z,16.6
2018-03-07T01:52:57.000Z,16.5
2018-03-07T02:02:58.000Z,16.5
2018-03-07T02:12:57.000Z,16.3
2018-03-07T02:22:57.000Z,16.3
2018-03-07T02:32:57.000Z,16.3
2018-03-07T02:42:57.000Z,16.3
2018-03-07T02:52:58.000Z,16.2
2018-03-07T03:02:58.000Z,16.3
2018-03-07T03:12:58.000Z,16.2
2018-03-07T03:22:58.000Z,16.1
2018-03-07T03:32:58.000Z,16.1
2018-03-07T03:42:58.000Z,16.2
2018-03-07T03:52:58.000Z,16.1
2018-03-07T04:02:58.000Z,16
2018-03-07T04:12:58.000Z,16
2018-03-07T04:22:58.000Z,15.8
2018-03-07T04:32:58.000Z,15.9
2018-03-07T04:42:58.000Z,15.9
2018-03-07T04:52:58.000Z,16.1
2018-03-07T05:02:58.000Z,15.8
2018-03-07T05:12:58.000Z,15.8
2018-03-07T05:22:58.000Z,15.9
2018-03-07T05:32:58.000Z,15.7
2018-03-07T05:42:58.000Z,15.7
2018-03-07T05:52:58.000Z,15.8
2018-03-07T06:02:58.000Z,15.6
2018-03-07T06:12:58.000Z,15.4
2018-03-07T06:22:58.000Z,15.5
2018-03-07T06:32:58.000Z,15.5
2018-03-07T06:42:58.000Z,15.5
2018-03-07T06:52:58.000Z,15.5
2018-03-07T07:02:58.000Z,16.6
2018-03-07T07:12:58.000Z,17.4
2018-03-07T07:22:58.000Z,17.9
2018-03-07T07:32:58.000Z,18.3
2018-03-07T07:42:58.000Z,18.5
2018-03-07T07:52:58.000Z,18.7
2018-03-07T08:02:58.000Z,18.7
2018-03-07T08:12:58.000Z,19
2018-03-07T08:22:58.000Z,19.2
2018-03-07T08:32:58.000Z,19.2
2018-03-07T08:42:58.000Z,19.2
2018-03-07T08:52:58.000Z,19.3
2018-03-07T09:02:59.000Z,19.3
2018-03-07T09:12:59.000Z,19.4
2018-03-07T09:22:59.000Z,19.5
2018-03-07T09:33:00.000Z,19.5
2018-03-07T09:42:58.000Z,19.6
2018-03-07T09:52:59.000Z,19.6
2018-03-07T10:02:58.000Z,19.6
2018-03-07T10:12:59.000Z,19.6
2018-03-07T10:22:59.000Z,19.6
2018-03-07T10:32:59.000Z,19.6
2018-03-07T10:42:59.000Z,19.5
2018-03-07T10:52:59.000Z,19.7
2018-03-07T11:03:01.000Z,19.6
2018-03-07T11:12:59.000Z,19.7
2018-03-07T11:22:59.000Z,19.7
2018-03-07T11:32:59.000Z,19.8
2018-03-07T11:42:59.000Z,19.8
2018-03-07T11:52:59.000Z,19.8
2018-03-07T12:02:59.000Z,19.8
2018-03-07T12:12:59.000Z,19.8
2018-03-07T12:22:59.000Z,19.8
2018-03-07T12:32:59.000Z,19.9
2018-03-07T12:42:59.000Z,19.9
2018-03-07T12:52:59.000Z,19.9
2018-03-07T13:02:59.000Z,19.9
2018-03-07T13:12:59.000Z,20.1
2018-03-07T13:22:59.000Z,20
2018-03-07T13:32:59.000Z,20
2018-03-07T13:42:59.000Z,20
2018-03-07T13:52:59.000Z,20
2018-03-07T14:02:59.000Z,20
2018-03-07T14:12:59.000Z,20
2018-03-07T14:22:59.000Z,20.1
2018-03-07T14:32:59.000Z,20
2018-03-07T14:42:59.000Z,20.1
2018-03-07T14:52:59.000Z,20.1
2018-03-07T15:02:59.000Z,20.1
2018-03-07T15:12:59.000Z,20.2
2018-03-07T15:22:59.000Z,20.1
2018-03-07T15:32:59.000Z,20.1
2018-03-07T15:42:59.000Z,20.1
2018-03-07T15:52:59.000Z,20.2
2018-03-07T16:02:59.000Z,20.2
2018-03-07T16:13:00.000Z,20.2
2018-03-07T16:22:59.000Z,20.2
2018-03-07T16:32:59.000Z,20.2
2018-03-07T16:42:59.000Z,20.2
2018-03-07T16:53:00.000Z,20.2
2018-03-07T17:03:00.000Z,20.2
2018-03-07T17:13:00.000Z,20.3
2018-03-07T17:23:00.000Z,20.3
2018-03-07T17:33:04.000Z,20.3
2018-03-07T17:43:00.000Z,20.3
2018-03-07T17:53:00.000Z,20.2
2018-03-07T18:03:00.000Z,20.3
2018-03-07T18:13:03.000Z,20.3
2018-03-07T18:23:00.000Z,20.2
2018-03-07T18:33:00.000Z,20.2
2018-03-07T18:43:01.000Z,20.2
2018-03-07T18:53:00.000Z,20.2
2018-03-07T19:03:00.000Z,20.2
2018-03-07T19:13:00.000Z,20.2
2018-03-07T19:23:00.000Z,20.2
2018-03-07T19:33:00.000Z,20.2
2018-03-07T19:43:00.000Z,20.2
2018-03-07T19:53:00.000Z,20.2
2018-03-07T20:03:00.000Z,20.2
2018-03-07T20:13:00.000Z,20.2
2018-03-07T20:23:01.000Z,20.2
2018-03-07T20:33:00.000Z,20.2
2018-03-07T20:43:00.000Z,20.1
2018-03-07T20:53:01.000Z,20.2
2018-03-07T21:03:00.000Z,20.2
2018-03-07T21:13:00.000Z,20.2
2018-03-07T21:23:00.000Z,20.2
2018-03-07T21:33:00.000Z,20.3
2018-03-07T21:43:00.000Z,20.2
2018-03-07T21:53:00.000Z,20.4
2018-03-07T22:03:00.000Z,20.3
2018-03-07T22:13:00.000Z,20.2
2018-03-07T22:23:00.000Z,20.3
2018-03-07T22:33:00.000Z,20.3
2018-03-07T22:43:00.000Z,20.2
2018-03-07T22:53:00.000Z,20.2
2018-03-07T23:03:01.000Z,19.2
2018-03-07T23:23:00.000Z,18.3
2018-03-07T23:33:00.000Z,17.6
2018-03-07T23:43:01.000Z,17.4
2018-03-07T23:53:01.000Z,17.1
